createdAt,value
2023-11-23T05:15:16.668Z,-1.50
2023-11-23T05:17:47.133Z,-1.60
2023-11-23T05:20:49.211Z,-1.60
2023-11-23T08:19:23.484Z,3.70
2023-11-23T08:22:04.148Z,3.40
2023-11-23T08:24:32.655Z,3.00
2023-11-23T08:27:00.135Z,2.30
2023-11-23T08:29:31.575Z,1.80
2023-11-23T08:31:59.995Z,1.60
2023-11-23T08:34:27.388Z,1.80
2023-11-23T08:36:56.068Z,2.20
2023-11-23T08:39:23.484Z,2.60
2023-11-23T08:41:51.895Z,3.30
2023-11-23T08:44:20.203Z,3.50
2023-11-23T08:46:47.499Z,3.40
2023-11-23T08:52:14.835Z,3.50
2023-11-23T08:54:49.898Z,3.70
2023-11-23T09:04:36.738Z,5.20
2023-11-23T09:07:11.897Z,6.10
2023-11-23T09:09:42.282Z,6.50
2023-11-23T09:12:09.757Z,6.90
2023-11-23T09:14:47.272Z,6.90
2023-11-23T09:17:22.709Z,6.80
2023-11-23T09:19:57.413Z,7.10
2023-11-23T09:23:13.224Z,7.00
2023-11-23T09:26:10.518Z,6.60
2023-11-23T09:57:16.636Z,6.50
2023-11-23T10:05:18.966Z,6.10
2023-11-23T10:07:48.324Z,6.20
2023-11-23T10:10:15.625Z,6.20
2023-11-23T10:13:00.315Z,6.20
2023-11-23T10:19:57.059Z,6.30
2023-11-23T10:23:24.314Z,6.40
2023-11-23T10:25:58.204Z,6.70
2023-11-23T10:28:47.721Z,6.70
2023-11-23T10:31:15.729Z,7.00
2023-11-23T10:34:14.156Z,6.90
2023-11-23T10:37:02.196Z,7.10
2023-11-23T10:39:33.953Z,7.30
2023-11-23T10:42:01.749Z,6.90
2023-11-23T10:44:31.254Z,6.90
2023-11-23T10:47:04.847Z,6.70
2023-11-23T10:49:36.848Z,6.40
2023-11-23T10:52:10.820Z,6.10
2023-11-23T10:54:38.557Z,5.90
2023-11-23T10:57:10.955Z,5.80
2023-11-23T10:59:43.300Z,5.90
2023-11-23T11:02:12.199Z,6.00
2023-11-23T11:05:00.861Z,6.00
2023-11-23T11:07:29.769Z,6.00
2023-11-23T11:10:08.576Z,5.90
2023-11-23T11:12:39.757Z,5.80
2023-11-23T11:15:13.487Z,5.80
2023-11-23T11:17:52.615Z,5.80
2023-11-23T11:20:33.564Z,5.70
2023-11-23T11:23:02.992Z,5.70
2023-11-23T11:25:44.998Z,5.80
2023-11-23T11:28:33.648Z,5.80
2023-11-23T11:31:43.080Z,5.80
2023-11-23T11:38:12.261Z,5.90
2023-11-23T11:40:52.326Z,5.90
2023-11-23T11:43:27.580Z,6.00
2023-11-23T11:45:55.139Z,5.90
2023-11-23T11:48:28.086Z,5.70
2023-11-23T11:50:58.920Z,5.60
2023-11-23T11:53:36.515Z,5.60
2023-11-23T11:56:05.671Z,5.50
2023-11-23T11:58:33.244Z,5.60
2023-11-23T12:01:01.496Z,5.60
2023-11-23T12:03:29.171Z,5.70
2023-11-23T12:05:56.886Z,5.70
2023-11-23T12:08:27.636Z,5.70
2023-11-23T12:11:00.402Z,5.60
2023-11-23T12:13:33.760Z,5.50
2023-11-23T12:16:13.385Z,5.40
2023-11-23T12:28:16.913Z,5.40
2023-11-23T12:29:11.273Z,5.40
2023-11-23T12:32:12.031Z,5.40
2023-11-23T13:22:12.944Z,5.60
2023-11-23T13:44:23.589Z,5.40
2023-11-23T14:23:11.398Z,4.80
2023-11-23T14:25:10.232Z,4.80
2023-11-23T14:26:33.994Z,4.80
2023-11-23T14:31:50.775Z,4.80
2023-11-23T14:40:02.453Z,4.70
2023-11-23T14:42:56.416Z,4.70
2023-11-23T14:56:06.322Z,4.70
2023-11-23T14:58:50.958Z,4.60
2023-11-23T15:14:08.202Z,4.40
2023-11-23T15:21:00.622Z,4.30
2023-11-23T15:23:34.647Z,4.40
2023-11-23T15:26:20.875Z,4.40
2023-11-23T15:29:21.789Z,4.30
2023-11-23T15:32:11.660Z,4.30
2023-11-23T15:35:18.551Z,4.40
2023-11-23T15:38:07.040Z,4.40
2023-11-23T15:47:58.213Z,4.40
2023-11-23T15:48:02.201Z,4.40
2023-11-23T15:50:43.272Z,4.40
2023-11-23T16:51:30.666Z,4.50
2023-11-23T16:53:57.986Z,4.50
2023-11-23T20:38:28.402Z,4.90
2023-11-23T21:20:33.212Z,4.90
2023-11-23T21:23:01.403Z,5.00
2023-11-23T21:26:12.327Z,5.00
2023-11-23T21:28:39.776Z,5.00
